sensor_id;sensor_type;location;lat;lon;timestamp;P1;durP1;ratioP1;P2;durP2;ratioP2
11996;SDS011;6058;48.704;9.474;2023-04-25T00:02:24;2.20;;;1.97;;
11996;SDS011;6058;48.704;9.474;2023-04-25T00:04:54;2.47;;;2.00;;
11996;SDS011;6058;48.704;9.474;2023-04-25T00:07:24;2.47;;;2.27;;
11996;SDS011;6058;48.704;9.474;2023-04-25T00:09:51;1.70;;;1.60;;
11996;SDS011;6058;48.704;9.474;2023-04-25T00:12:19;2.13;;;1.93;;
11996;SDS011;6058;48.704;9.474;2023-04-25T00:14:47;1.60;;;1.50;;
11996;SDS011;6058;48.704;9.474;2023-04-25T00:17:16;1.77;;;1.63;;
11996;SDS011;6058;48.704;9.474;2023-04-25T00:19:44;2.53;;;1.80;;
11996;SDS011;6058;48.704;9.474;2023-04-25T00:22:12;2.27;;;1.70;;
11996;SDS011;6058;48.704;9.474;2023-04-25T00:24:39;2.30;;;2.10;;
11996;SDS011;6058;48.704;9.474;2023-04-25T00:27:07;3.33;;;2.10;;
11996;SDS011;6058;48.704;9.474;2023-04-25T00:29:34;3.40;;;2.00;;
11996;SDS011;6058;48.704;9.474;2023-04-25T00:32:01;2.90;;;2.00;;
11996;SDS011;6058;48.704;9.474;2023-04-25T00:34:28;2.77;;;1.80;;
11996;SDS011;6058;48.704;9.474;2023-04-25T00:36:55;1.90;;;1.80;;
11996;SDS011;6058;48.704;9.474;2023-04-25T00:39:24;4.00;;;2.00;;
11996;SDS011;6058;48.704;9.474;2023-04-25T00:41:51;2.10;;;2.00;;
11996;SDS011;6058;48.704;9.474;2023-04-25T00:44:20;1.60;;;1.50;;
11996;SDS011;6058;48.704;9.474;2023-04-25T00:46:47;1.67;;;1.40;;
11996;SDS011;6058;48.704;9.474;2023-04-25T00:49:14;2.60;;;2.03;;
11996;SDS011;6058;48.704;9.474;2023-04-25T00:51:42;2.20;;;2.00;;
11996;SDS011;6058;48.704;9.474;2023-04-25T00:54:10;3.20;;;2.03;;
11996;SDS011;6058;48.704;9.474;2023-04-25T00:56:39;2.77;;;1.93;;
11996;SDS011;6058;48.704;9.474;2023-04-25T00:59:06;1.90;;;1.80;;
11996;SDS011;6058;48.704;9.474;2023-04-25T01:01:34;2.50;;;2.30;;
11996;SDS011;6058;48.704;9.474;2023-04-25T01:04:02;3.70;;;2.20;;
11996;SDS011;6058;48.704;9.474;2023-04-25T01:06:30;2.40;;;2.07;;
11996;SDS011;6058;48.704;9.474;2023-04-25T01:08:57;2.17;;;1.97;;
11996;SDS011;6058;48.704;9.474;2023-04-25T01:11:24;3.87;;;2.10;;
11996;SDS011;6058;48.704;9.474;2023-04-25T01:13:53;2.40;;;2.20;;
11996;SDS011;6058;48.704;9.474;2023-04-25T01:16:20;3.47;;;2.40;;
11996;SDS011;6058;48.704;9.474;2023-04-25T01:18:48;3.57;;;2.17;;
11996;SDS011;6058;48.704;9.474;2023-04-25T01:21:18;1.97;;;1.83;;
11996;SDS011;6058;48.704;9.474;2023-04-25T01:23:45;2.13;;;1.93;;
11996;SDS011;6058;48.704;9.474;2023-04-25T01:26:13;3.87;;;1.97;;
11996;SDS011;6058;48.704;9.474;2023-04-25T01:28:40;2.20;;;2.03;;
11996;SDS011;6058;48.704;9.474;2023-04-25T01:31:07;3.10;;;2.30;;
11996;SDS011;6058;48.704;9.474;2023-04-25T01:33:35;2.73;;;2.30;;
11996;SDS011;6058;48.704;9.474;2023-04-25T01:36:02;2.93;;;2.20;;
11996;SDS011;6058;48.704;9.474;2023-04-25T01:38:31;2.33;;;2.13;;
11996;SDS011;6058;48.704;9.474;2023-04-25T01:40:58;2.87;;;2.37;;
11996;SDS011;6058;48.704;9.474;2023-04-25T01:43:26;2.07;;;1.90;;
11996;SDS011;6058;48.704;9.474;2023-04-25T01:45:53;3.97;;;2.00;;
11996;SDS011;6058;48.704;9.474;2023-04-25T01:48:20;2.40;;;2.20;;
11996;SDS011;6058;48.704;9.474;2023-04-25T01:50:47;2.20;;;2.00;;
11996;SDS011;6058;48.704;9.474;2023-04-25T01:53:14;3.33;;;2.00;;
11996;SDS011;6058;48.704;9.474;2023-04-25T01:55:43;1.93;;;1.80;;
11996;SDS011;6058;48.704;9.474;2023-04-25T01:58:10;3.17;;;1.80;;
11996;SDS011;6058;48.704;9.474;2023-04-25T02:00:38;2.03;;;1.80;;
11996;SDS011;6058;48.704;9.474;2023-04-25T02:03:05;2.43;;;2.23;;
11996;SDS011;6058;48.704;9.474;2023-04-25T02:05:36;3.60;;;2.40;;
11996;SDS011;6058;48.704;9.474;2023-04-25T02:08:04;4.23;;;2.50;;
11996;SDS011;6058;48.704;9.474;2023-04-25T02:10:32;3.70;;;2.23;;
11996;SDS011;6058;48.704;9.474;2023-04-25T02:13:00;5.07;;;2.50;;
11996;SDS011;6058;48.704;9.474;2023-04-25T02:20:42;2.67;;;2.00;;
11996;SDS011;6058;48.704;9.474;2023-04-25T02:23:24;2.40;;;2.00;;
11996;SDS011;6058;48.704;9.474;2023-04-25T02:26:29;2.37;;;2.17;;
11996;SDS011;6058;48.704;9.474;2023-04-25T02:29:24;3.13;;;2.57;;
11996;SDS011;6058;48.704;9.474;2023-04-25T02:32:14;2.37;;;2.10;;
11996;SDS011;6058;48.704;9.474;2023-04-25T02:35:13;2.37;;;2.23;;
11996;SDS011;6058;48.704;9.474;2023-04-25T02:38:08;2.37;;;2.10;;
11996;SDS011;6058;48.704;9.474;2023-04-25T02:40:50;3.07;;;2.30;;
11996;SDS011;6058;48.704;9.474;2023-04-25T02:43:42;2.80;;;2.60;;
11996;SDS011;6058;48.704;9.474;2023-04-25T02:46:35;1.93;;;1.83;;
11996;SDS011;6058;48.704;9.474;2023-04-25T02:49:27;2.53;;;2.20;;
11996;SDS011;6058;48.704;9.474;2023-04-25T02:52:04;2.40;;;2.20;;
11996;SDS011;6058;48.704;9.474;2023-04-25T02:54:48;5.67;;;2.00;;
11996;SDS011;6058;48.704;9.474;2023-04-25T02:57:43;2.60;;;2.40;;
11996;SDS011;6058;48.704;9.474;2023-04-25T03:00:38;3.73;;;2.40;;
11996;SDS011;6058;48.704;9.474;2023-04-25T03:03:24;2.23;;;1.90;;
11996;SDS011;6058;48.704;9.474;2023-04-25T03:06:18;2.57;;;2.17;;
11996;SDS011;6058;48.704;9.474;2023-04-25T03:09:00;2.40;;;2.10;;
11996;SDS011;6058;48.704;9.474;2023-04-25T03:12:02;2.60;;;2.40;;
11996;SDS011;6058;48.704;9.474;2023-04-25T03:14:49;6.47;;;2.43;;
11996;SDS011;6058;48.704;9.474;2023-04-25T03:17:32;2.30;;;2.10;;
11996;SDS011;6058;48.704;9.474;2023-04-25T03:20:18;2.73;;;2.40;;
11996;SDS011;6058;48.704;9.474;2023-04-25T03:23:26;2.10;;;1.90;;
11996;SDS011;6058;48.704;9.474;2023-04-25T03:26:20;2.43;;;2.10;;
11996;SDS011;6058;48.704;9.474;2023-04-25T03:29:11;4.07;;;2.00;;
11996;SDS011;6058;48.704;9.474;2023-04-25T03:32:05;2.10;;;2.00;;
11996;SDS011;6058;48.704;9.474;2023-04-25T03:35:06;2.50;;;2.23;;
11996;SDS011;6058;48.704;9.474;2023-04-25T03:41:05;1.80;;;1.70;;
11996;SDS011;6058;48.704;9.474;2023-04-25T03:43:54;2.17;;;1.83;;
11996;SDS011;6058;48.704;9.474;2023-04-25T03:46:44;4.40;;;2.10;;
11996;SDS011;6058;48.704;9.474;2023-04-25T03:49:34;3.63;;;2.10;;
11996;SDS011;6058;48.704;9.474;2023-04-25T03:52:21;2.30;;;2.07;;
11996;SDS011;6058;48.704;9.474;2023-04-25T03:55:15;2.87;;;1.53;;
11996;SDS011;6058;48.704;9.474;2023-04-25T03:58:14;1.73;;;1.57;;
11996;SDS011;6058;48.704;9.474;2023-04-25T04:01:00;1.80;;;1.70;;
11996;SDS011;6058;48.704;9.474;2023-04-25T04:03:54;3.87;;;1.90;;
11996;SDS011;6058;48.704;9.474;2023-04-25T04:06:32;2.23;;;2.03;;
11996;SDS011;6058;48.704;9.474;2023-04-25T04:09:20;2.57;;;2.00;;
11996;SDS011;6058;48.704;9.474;2023-04-25T04:15:06;2.33;;;1.53;;
11996;SDS011;6058;48.704;9.474;2023-04-25T04:17:58;2.67;;;1.93;;
11996;SDS011;6058;48.704;9.474;2023-04-25T04:20:48;2.27;;;2.00;;
11996;SDS011;6058;48.704;9.474;2023-04-25T04:26:24;1.90;;;1.70;;
11996;SDS011;6058;48.704;9.474;2023-04-25T04:28:56;1.90;;;1.70;;
11996;SDS011;6058;48.704;9.474;2023-04-25T04:31:30;2.13;;;1.60;;
11996;SDS011;6058;48.704;9.474;2023-04-25T04:34:05;2.17;;;1.90;;
11996;SDS011;6058;48.704;9.474;2023-04-25T04:36:40;2.30;;;2.07;;
11996;SDS011;6058;48.704;9.474;2023-04-25T04:39:11;3.37;;;2.23;;
11996;SDS011;6058;48.704;9.474;2023-04-25T04:41:42;1.80;;;1.70;;
11996;SDS011;6058;48.704;9.474;2023-04-25T04:44:19;3.60;;;1.90;;
11996;SDS011;6058;48.704;9.474;2023-04-25T04:47:07;2.13;;;1.77;;
11996;SDS011;6058;48.704;9.474;2023-04-25T04:50:16;1.90;;;1.77;;
11996;SDS011;6058;48.704;9.474;2023-04-25T04:52:53;1.70;;;1.60;;
11996;SDS011;6058;48.704;9.474;2023-04-25T04:55:34;2.03;;;1.83;;
11996;SDS011;6058;48.704;9.474;2023-04-25T04:58:10;2.33;;;1.97;;
11996;SDS011;6058;48.704;9.474;2023-04-25T05:00:46;2.50;;;2.30;;
11996;SDS011;6058;48.704;9.474;2023-04-25T05:03:22;3.43;;;2.60;;
11996;SDS011;6058;48.704;9.474;2023-04-25T05:05:54;2.37;;;2.17;;
11996;SDS011;6058;48.704;9.474;2023-04-25T05:08:30;3.40;;;2.20;;
11996;SDS011;6058;48.704;9.474;2023-04-25T05:11:12;2.77;;;2.47;;
11996;SDS011;6058;48.704;9.474;2023-04-25T05:16:21;2.63;;;2.07;;
11996;SDS011;6058;48.704;9.474;2023-04-25T05:18:54;3.00;;;1.90;;
11996;SDS011;6058;48.704;9.474;2023-04-25T05:21:26;2.33;;;2.20;;
11996;SDS011;6058;48.704;9.474;2023-04-25T05:24:08;2.33;;;2.13;;
11996;SDS011;6058;48.704;9.474;2023-04-25T05:26:41;3.37;;;2.30;;
11996;SDS011;6058;48.704;9.474;2023-04-25T05:29:16;4.80;;;2.37;;
11996;SDS011;6058;48.704;9.474;2023-04-25T05:31:58;3.40;;;2.17;;
11996;SDS011;6058;48.704;9.474;2023-04-25T05:37:17;2.47;;;2.00;;
11996;SDS011;6058;48.704;9.474;2023-04-25T05:40:13;2.53;;;2.33;;
11996;SDS011;6058;48.704;9.474;2023-04-25T05:43:00;5.03;;;2.10;;
11996;SDS011;6058;48.704;9.474;2023-04-25T05:45:34;2.50;;;2.30;;
11996;SDS011;6058;48.704;9.474;2023-04-25T05:48:05;2.40;;;2.20;;
11996;SDS011;6058;48.704;9.474;2023-04-25T05:50:42;3.40;;;2.20;;
11996;SDS011;6058;48.704;9.474;2023-04-25T05:53:18;3.20;;;2.03;;
11996;SDS011;6058;48.704;9.474;2023-04-25T05:56:27;2.80;;;2.27;;
11996;SDS011;6058;48.704;9.474;2023-04-25T05:59:19;2.60;;;2.30;;
11996;SDS011;6058;48.704;9.474;2023-04-25T06:02:14;3.33;;;2.33;;
11996;SDS011;6058;48.704;9.474;2023-04-25T06:05:31;3.53;;;2.40;;
11996;SDS011;6058;48.704;9.474;2023-04-25T06:08:25;3.03;;;2.60;;
11996;SDS011;6058;48.704;9.474;2023-04-25T06:15:11;3.70;;;2.37;;
11996;SDS011;6058;48.704;9.474;2023-04-25T06:17:28;4.33;;;2.70;;
11996;SDS011;6058;48.704;9.474;2023-04-25T06:20:24;2.50;;;2.13;;
11996;SDS011;6058;48.704;9.474;2023-04-25T06:23:03;2.30;;;2.10;;
11996;SDS011;6058;48.704;9.474;2023-04-25T06:25:34;4.33;;;2.03;;
11996;SDS011;6058;48.704;9.474;2023-04-25T06:28:06;2.20;;;2.00;;
11996;SDS011;6058;48.704;9.474;2023-04-25T06:30:51;3.93;;;2.40;;
11996;SDS011;6058;48.704;9.474;2023-04-25T06:33:35;3.63;;;2.00;;
11996;SDS011;6058;48.704;9.474;2023-04-25T06:37:01;2.97;;;2.20;;
11996;SDS011;6058;48.704;9.474;2023-04-25T06:39:06;2.63;;;2.07;;
11996;SDS011;6058;48.704;9.474;2023-04-25T06:51:09;2.20;;;1.90;;
11996;SDS011;6058;48.704;9.474;2023-04-25T06:56:48;2.33;;;2.13;;
11996;SDS011;6058;48.704;9.474;2023-04-25T07:02:09;2.23;;;2.03;;
11996;SDS011;6058;48.704;9.474;2023-04-25T07:10:51;2.43;;;2.00;;
11996;SDS011;6058;48.704;9.474;2023-04-25T07:16:03;3.10;;;1.70;;
11996;SDS011;6058;48.704;9.474;2023-04-25T07:18:34;1.70;;;1.60;;
11996;SDS011;6058;48.704;9.474;2023-04-25T07:21:12;2.07;;;1.97;;
11996;SDS011;6058;48.704;9.474;2023-04-25T07:23:47;3.80;;;1.90;;
11996;SDS011;6058;48.704;9.474;2023-04-25T07:26:34;1.97;;;1.67;;
11996;SDS011;6058;48.704;9.474;2023-04-25T07:31:52;2.30;;;1.80;;
11996;SDS011;6058;48.704;9.474;2023-04-25T07:34:31;1.90;;;1.80;;
11996;SDS011;6058;48.704;9.474;2023-04-25T07:37:02;2.97;;;1.43;;
11996;SDS011;6058;48.704;9.474;2023-04-25T07:39:33;2.60;;;1.90;;
11996;SDS011;6058;48.704;9.474;2023-04-25T07:42:04;2.10;;;1.90;;
11996;SDS011;6058;48.704;9.474;2023-04-25T07:44:33;2.10;;;1.90;;
11996;SDS011;6058;48.704;9.474;2023-04-25T07:47:04;3.50;;;2.23;;
11996;SDS011;6058;48.704;9.474;2023-04-25T07:49:35;1.87;;;1.67;;
11996;SDS011;6058;48.704;9.474;2023-04-25T07:52:03;3.50;;;1.77;;
11996;SDS011;6058;48.704;9.474;2023-04-25T07:54:32;2.70;;;1.90;;
11996;SDS011;6058;48.704;9.474;2023-04-25T07:57:00;2.37;;;2.17;;
11996;SDS011;6058;48.704;9.474;2023-04-25T07:59:30;2.37;;;1.80;;
11996;SDS011;6058;48.704;9.474;2023-04-25T08:02:00;4.13;;;2.20;;
11996;SDS011;6058;48.704;9.474;2023-04-25T08:04:31;4.40;;;1.90;;
11996;SDS011;6058;48.704;9.474;2023-04-25T08:07:00;2.27;;;1.70;;
11996;SDS011;6058;48.704;9.474;2023-04-25T08:09:34;2.17;;;2.07;;
11996;SDS011;6058;48.704;9.474;2023-04-25T08:12:02;3.23;;;2.30;;
11996;SDS011;6058;48.704;9.474;2023-04-25T08:14:32;2.00;;;1.90;;
11996;SDS011;6058;48.704;9.474;2023-04-25T08:19:37;2.23;;;1.93;;
11996;SDS011;6058;48.704;9.474;2023-04-25T08:22:05;2.93;;;2.40;;
11996;SDS011;6058;48.704;9.474;2023-04-25T08:24:32;2.60;;;2.17;;
11996;SDS011;6058;48.704;9.474;2023-04-25T08:26:59;3.00;;;2.70;;
11996;SDS011;6058;48.704;9.474;2023-04-25T08:29:27;2.90;;;2.70;;
11996;SDS011;6058;48.704;9.474;2023-04-25T08:31:55;3.27;;;2.37;;
11996;SDS011;6058;48.704;9.474;2023-04-25T08:34:23;1.90;;;1.80;;
11996;SDS011;6058;48.704;9.474;2023-04-25T08:36:50;2.80;;;2.00;;
11996;SDS011;6058;48.704;9.474;2023-04-25T08:39:17;2.40;;;2.20;;
11996;SDS011;6058;48.704;9.474;2023-04-25T08:41:45;2.47;;;2.27;;
11996;SDS011;6058;48.704;9.474;2023-04-25T08:44:13;3.20;;;2.20;;
11996;SDS011;6058;48.704;9.474;2023-04-25T08:46:40;2.50;;;2.30;;
11996;SDS011;6058;48.704;9.474;2023-04-25T08:49:08;4.37;;;1.90;;
11996;SDS011;6058;48.704;9.474;2023-04-25T08:51:36;2.13;;;1.97;;
11996;SDS011;6058;48.704;9.474;2023-04-25T08:54:07;4.77;;;2.37;;
11996;SDS011;6058;48.704;9.474;2023-04-25T08:56:35;2.50;;;2.30;;
11996;SDS011;6058;48.704;9.474;2023-04-25T08:59:02;2.90;;;2.43;;
11996;SDS011;6058;48.704;9.474;2023-04-25T09:01:32;3.33;;;2.87;;
11996;SDS011;6058;48.704;9.474;2023-04-25T09:04:00;4.67;;;2.90;;
11996;SDS011;6058;48.704;9.474;2023-04-25T09:06:29;2.60;;;2.40;;
11996;SDS011;6058;48.704;9.474;2023-04-25T09:09:00;3.40;;;2.87;;
11996;SDS011;6058;48.704;9.474;2023-04-25T09:11:28;2.83;;;2.47;;
11996;SDS011;6058;48.704;9.474;2023-04-25T09:14:09;2.60;;;2.33;;
11996;SDS011;6058;48.704;9.474;2023-04-25T09:16:42;3.00;;;2.80;;
11996;SDS011;6058;48.704;9.474;2023-04-25T09:19:24;3.00;;;2.70;;
11996;SDS011;6058;48.704;9.474;2023-04-25T09:21:54;3.23;;;2.73;;
11996;SDS011;6058;48.704;9.474;2023-04-25T09:24:29;5.30;;;2.50;;
11996;SDS011;6058;48.704;9.474;2023-04-25T09:26:57;2.60;;;2.40;;
11996;SDS011;6058;48.704;9.474;2023-04-25T09:29:28;4.13;;;2.40;;
11996;SDS011;6058;48.704;9.474;2023-04-25T09:32:08;2.97;;;2.60;;
11996;SDS011;6058;48.704;9.474;2023-04-25T09:34:38;2.70;;;2.33;;
11996;SDS011;6058;48.704;9.474;2023-04-25T09:37:07;4.23;;;2.13;;
11996;SDS011;6058;48.704;9.474;2023-04-25T09:39:35;3.33;;;2.20;;
11996;SDS011;6058;48.704;9.474;2023-04-25T09:42:02;2.37;;;2.17;;
11996;SDS011;6058;48.704;9.474;2023-04-25T09:44:30;6.13;;;2.70;;
11996;SDS011;6058;48.704;9.474;2023-04-25T09:46:57;2.77;;;2.57;;
11996;SDS011;6058;48.704;9.474;2023-04-25T09:49:24;3.03;;;2.73;;
11996;SDS011;6058;48.704;9.474;2023-04-25T09:51:55;3.30;;;2.77;;
11996;SDS011;6058;48.704;9.474;2023-04-25T09:54:24;3.27;;;2.80;;
11996;SDS011;6058;48.704;9.474;2023-04-25T09:56:52;2.97;;;2.67;;
11996;SDS011;6058;48.704;9.474;2023-04-25T09:59:19;3.23;;;2.93;;
11996;SDS011;6058;48.704;9.474;2023-04-25T10:01:48;3.97;;;2.50;;
11996;SDS011;6058;48.704;9.474;2023-04-25T10:04:16;3.20;;;2.90;;
11996;SDS011;6058;48.704;9.474;2023-04-25T10:06:46;3.30;;;2.30;;
11996;SDS011;6058;48.704;9.474;2023-04-25T10:09:15;5.03;;;3.40;;
11996;SDS011;6058;48.704;9.474;2023-04-25T10:11:45;3.27;;;3.00;;
11996;SDS011;6058;48.704;9.474;2023-04-25T10:14:13;2.93;;;2.60;;
11996;SDS011;6058;48.704;9.474;2023-04-25T10:19:26;4.00;;;2.27;;
11996;SDS011;6058;48.704;9.474;2023-04-25T10:24:36;8.70;;;6.83;;
11996;SDS011;6058;48.704;9.474;2023-04-25T10:27:06;4.53;;;2.90;;
11996;SDS011;6058;48.704;9.474;2023-04-25T10:29:34;4.27;;;3.27;;
11996;SDS011;6058;48.704;9.474;2023-04-25T10:32:02;3.30;;;3.00;;
11996;SDS011;6058;48.704;9.474;2023-04-25T10:34:39;3.30;;;3.00;;
11996;SDS011;6058;48.704;9.474;2023-04-25T10:37:08;5.17;;;3.07;;
11996;SDS011;6058;48.704;9.474;2023-04-25T10:39:36;4.00;;;3.23;;
11996;SDS011;6058;48.704;9.474;2023-04-25T10:42:06;3.40;;;3.10;;
11996;SDS011;6058;48.704;9.474;2023-04-25T10:44:34;2.83;;;2.60;;
11996;SDS011;6058;48.704;9.474;2023-04-25T10:47:01;2.83;;;2.60;;
11996;SDS011;6058;48.704;9.474;2023-04-25T10:49:31;5.57;;;2.97;;
11996;SDS011;6058;48.704;9.474;2023-04-25T10:52:11;3.57;;;2.53;;
11996;SDS011;6058;48.704;9.474;2023-04-25T10:54:40;3.63;;;2.73;;
11996;SDS011;6058;48.704;9.474;2023-04-25T10:57:09;3.17;;;2.87;;
11996;SDS011;6058;48.704;9.474;2023-04-25T10:59:53;3.57;;;2.90;;
11996;SDS011;6058;48.704;9.474;2023-04-25T11:02:42;4.77;;;2.10;;
11996;SDS011;6058;48.704;9.474;2023-04-25T11:05:10;2.80;;;2.60;;
11996;SDS011;6058;48.704;9.474;2023-04-25T11:07:38;3.37;;;2.80;;
11996;SDS011;6058;48.704;9.474;2023-04-25T11:10:06;3.27;;;2.23;;
11996;SDS011;6058;48.704;9.474;2023-04-25T11:12:35;3.07;;;2.13;;
11996;SDS011;6058;48.704;9.474;2023-04-25T11:15:02;1.87;;;1.70;;
11996;SDS011;6058;48.704;9.474;2023-04-25T11:17:29;2.73;;;1.93;;
11996;SDS011;6058;48.704;9.474;2023-04-25T11:19:57;2.57;;;1.90;;
11996;SDS011;6058;48.704;9.474;2023-04-25T11:22:24;3.23;;;3.03;;
11996;SDS011;6058;48.704;9.474;2023-04-25T11:24:51;9.33;;;8.67;;
11996;SDS011;6058;48.704;9.474;2023-04-25T11:27:18;6.40;;;6.00;;
11996;SDS011;6058;48.704;9.474;2023-04-25T11:29:47;9.90;;;9.20;;
11996;SDS011;6058;48.704;9.474;2023-04-25T11:32:14;13.10;;;12.13;;
11996;SDS011;6058;48.704;9.474;2023-04-25T11:34:43;11.20;;;10.37;;
11996;SDS011;6058;48.704;9.474;2023-04-25T11:37:11;20.03;;;18.60;;
11996;SDS011;6058;48.704;9.474;2023-04-25T11:39:39;7.37;;;6.87;;
11996;SDS011;6058;48.704;9.474;2023-04-25T11:42:09;9.50;;;8.77;;
11996;SDS011;6058;48.704;9.474;2023-04-25T11:44:37;11.90;;;11.03;;
11996;SDS011;6058;48.704;9.474;2023-04-25T11:47:06;2.97;;;2.77;;
11996;SDS011;6058;48.704;9.474;2023-04-25T11:49:34;5.97;;;5.60;;
11996;SDS011;6058;48.704;9.474;2023-04-25T11:52:02;4.27;;;3.97;;
11996;SDS011;6058;48.704;9.474;2023-04-25T11:54:29;4.27;;;3.97;;
11996;SDS011;6058;48.704;9.474;2023-04-25T11:56:56;7.23;;;2.23;;
11996;SDS011;6058;48.704;9.474;2023-04-25T11:59:24;2.80;;;2.60;;
11996;SDS011;6058;48.704;9.474;2023-04-25T12:01:52;4.43;;;4.13;;
11996;SDS011;6058;48.704;9.474;2023-04-25T12:04:21;2.53;;;2.40;;
11996;SDS011;6058;48.704;9.474;2023-04-25T12:06:49;2.83;;;2.67;;
11996;SDS011;6058;48.704;9.474;2023-04-25T12:09:17;3.40;;;3.20;;
11996;SDS011;6058;48.704;9.474;2023-04-25T12:11:47;3.33;;;3.17;;
11996;SDS011;6058;48.704;9.474;2023-04-25T12:14:20;2.50;;;2.40;;
11996;SDS011;6058;48.704;9.474;2023-04-25T12:16:48;1.30;;;1.30;;
11996;SDS011;6058;48.704;9.474;2023-04-25T12:19:16;1.73;;;1.47;;
11996;SDS011;6058;48.704;9.474;2023-04-25T12:21:45;1.90;;;1.80;;
11996;SDS011;6058;48.704;9.474;2023-04-25T12:24:13;1.30;;;1.30;;
11996;SDS011;6058;48.704;9.474;2023-04-25T12:29:26;1.27;;;1.17;;
11996;SDS011;6058;48.704;9.474;2023-04-25T12:31:54;1.63;;;1.53;;
11996;SDS011;6058;48.704;9.474;2023-04-25T12:34:21;1.00;;;1.00;;
11996;SDS011;6058;48.704;9.474;2023-04-25T12:36:51;1.70;;;1.60;;
11996;SDS011;6058;48.704;9.474;2023-04-25T12:39:19;1.50;;;1.40;;
11996;SDS011;6058;48.704;9.474;2023-04-25T12:41:47;1.93;;;1.23;;
11996;SDS011;6058;48.704;9.474;2023-04-25T12:44:14;1.20;;;1.20;;
11996;SDS011;6058;48.704;9.474;2023-04-25T12:46:42;1.17;;;1.17;;
11996;SDS011;6058;48.704;9.474;2023-04-25T12:49:10;0.83;;;0.83;;
11996;SDS011;6058;48.704;9.474;2023-04-25T12:51:37;1.07;;;0.97;;
11996;SDS011;6058;48.704;9.474;2023-04-25T12:54:05;0.77;;;0.77;;
11996;SDS011;6058;48.704;9.474;2023-04-25T12:56:33;1.23;;;1.23;;
11996;SDS011;6058;48.704;9.474;2023-04-25T12:59:00;1.37;;;1.27;;
11996;SDS011;6058;48.704;9.474;2023-04-25T13:01:28;0.90;;;0.90;;
11996;SDS011;6058;48.704;9.474;2023-04-25T13:03:55;1.53;;;1.00;;
11996;SDS011;6058;48.704;9.474;2023-04-25T13:06:22;1.90;;;1.27;;
11996;SDS011;6058;48.704;9.474;2023-04-25T13:08:51;1.33;;;1.23;;
11996;SDS011;6058;48.704;9.474;2023-04-25T13:11:20;1.10;;;1.00;;
11996;SDS011;6058;48.704;9.474;2023-04-25T13:13:47;1.40;;;1.30;;
11996;SDS011;6058;48.704;9.474;2023-04-25T13:16:15;1.27;;;1.20;;
11996;SDS011;6058;48.704;9.474;2023-04-25T13:18:42;1.47;;;1.37;;
11996;SDS011;6058;48.704;9.474;2023-04-25T13:21:09;1.20;;;1.20;;
11996;SDS011;6058;48.704;9.474;2023-04-25T13:23:37;1.40;;;1.30;;
11996;SDS011;6058;48.704;9.474;2023-04-25T13:26:05;1.80;;;1.70;;
11996;SDS011;6058;48.704;9.474;2023-04-25T13:28:34;2.93;;;1.60;;
11996;SDS011;6058;48.704;9.474;2023-04-25T13:31:01;1.77;;;1.67;;
11996;SDS011;6058;48.704;9.474;2023-04-25T13:33:28;2.43;;;2.07;;
11996;SDS011;6058;48.704;9.474;2023-04-25T13:35:56;2.43;;;2.00;;
11996;SDS011;6058;48.704;9.474;2023-04-25T13:38:23;2.97;;;2.60;;
11996;SDS011;6058;48.704;9.474;2023-04-25T13:40:51;2.70;;;2.20;;
11996;SDS011;6058;48.704;9.474;2023-04-25T13:43:18;4.03;;;2.20;;
11996;SDS011;6058;48.704;9.474;2023-04-25T13:45:49;3.20;;;1.80;;
11996;SDS011;6058;48.704;9.474;2023-04-25T13:48:16;2.37;;;2.17;;
11996;SDS011;6058;48.704;9.474;2023-04-25T13:50:43;2.67;;;2.47;;
11996;SDS011;6058;48.704;9.474;2023-04-25T13:53:11;2.40;;;2.20;;
11996;SDS011;6058;48.704;9.474;2023-04-25T13:55:38;3.77;;;2.23;;
11996;SDS011;6058;48.704;9.474;2023-04-25T13:58:05;3.10;;;2.43;;
11996;SDS011;6058;48.704;9.474;2023-04-25T14:00:35;2.80;;;2.60;;
11996;SDS011;6058;48.704;9.474;2023-04-25T14:03:04;2.83;;;2.60;;
11996;SDS011;6058;48.704;9.474;2023-04-25T14:05:33;2.53;;;2.30;;
11996;SDS011;6058;48.704;9.474;2023-04-25T14:08:03;2.97;;;2.77;;
11996;SDS011;6058;48.704;9.474;2023-04-25T14:10:31;3.07;;;2.50;;
11996;SDS011;6058;48.704;9.474;2023-04-25T14:12:58;2.80;;;2.50;;
11996;SDS011;6058;48.704;9.474;2023-04-25T14:15:25;4.03;;;2.73;;
11996;SDS011;6058;48.704;9.474;2023-04-25T14:17:52;4.17;;;2.80;;
11996;SDS011;6058;48.704;9.474;2023-04-25T14:20:27;3.77;;;3.37;;
11996;SDS011;6058;48.704;9.474;2023-04-25T14:23:28;3.80;;;3.40;;
11996;SDS011;6058;48.704;9.474;2023-04-25T14:26:21;4.63;;;3.27;;
11996;SDS011;6058;48.704;9.474;2023-04-25T14:28:58;3.97;;;3.33;;
11996;SDS011;6058;48.704;9.474;2023-04-25T14:42:58;4.63;;;3.53;;
11996;SDS011;6058;48.704;9.474;2023-04-25T14:45:48;3.80;;;3.40;;
11996;SDS011;6058;48.704;9.474;2023-04-25T14:48:26;4.03;;;3.63;;
11996;SDS011;6058;48.704;9.474;2023-04-25T14:51:03;3.50;;;3.20;;
11996;SDS011;6058;48.704;9.474;2023-04-25T14:54:01;4.33;;;3.03;;
11996;SDS011;6058;48.704;9.474;2023-04-25T14:56:45;4.90;;;3.63;;
11996;SDS011;6058;48.704;9.474;2023-04-25T14:59:27;3.83;;;3.53;;
11996;SDS011;6058;48.704;9.474;2023-04-25T15:02:12;3.33;;;3.03;;
11996;SDS011;6058;48.704;9.474;2023-04-25T15:04:52;4.73;;;3.30;;
11996;SDS011;6058;48.704;9.474;2023-04-25T15:07:32;4.37;;;3.53;;
11996;SDS011;6058;48.704;9.474;2023-04-25T15:10:11;3.33;;;3.03;;
11996;SDS011;6058;48.704;9.474;2023-04-25T15:12:48;5.17;;;3.27;;
11996;SDS011;6058;48.704;9.474;2023-04-25T15:15:39;3.77;;;2.97;;
11996;SDS011;6058;48.704;9.474;2023-04-25T15:21:20;4.87;;;3.47;;
11996;SDS011;6058;48.704;9.474;2023-04-25T15:23:53;3.40;;;3.10;;
11996;SDS011;6058;48.704;9.474;2023-04-25T15:26:55;3.93;;;3.53;;
11996;SDS011;6058;48.704;9.474;2023-04-25T15:29:27;4.93;;;4.13;;
11996;SDS011;6058;48.704;9.474;2023-04-25T15:32:15;4.30;;;3.90;;
11996;SDS011;6058;48.704;9.474;2023-04-25T15:34:56;5.73;;;3.80;;
11996;SDS011;6058;48.704;9.474;2023-04-25T15:37:37;4.43;;;3.60;;
11996;SDS011;6058;48.704;9.474;2023-04-25T15:40:11;5.50;;;4.10;;
11996;SDS011;6058;48.704;9.474;2023-04-25T15:43:04;5.10;;;4.57;;
11996;SDS011;6058;48.704;9.474;2023-04-25T15:45:48;6.20;;;4.00;;
11996;SDS011;6058;48.704;9.474;2023-04-25T15:54:46;5.30;;;4.03;;
11996;SDS011;6058;48.704;9.474;2023-04-25T15:57:42;4.13;;;3.57;;
11996;SDS011;6058;48.704;9.474;2023-04-25T16:00:21;5.00;;;3.77;;
11996;SDS011;6058;48.704;9.474;2023-04-25T16:03:06;7.13;;;3.90;;
11996;SDS011;6058;48.704;9.474;2023-04-25T16:05:52;7.87;;;5.50;;
11996;SDS011;6058;48.704;9.474;2023-04-25T16:08:24;6.40;;;5.40;;
11996;SDS011;6058;48.704;9.474;2023-04-25T16:13:54;7.47;;;4.67;;
11996;SDS011;6058;48.704;9.474;2023-04-25T16:16:41;5.70;;;3.93;;
11996;SDS011;6058;48.704;9.474;2023-04-25T16:19:26;5.60;;;3.73;;
11996;SDS011;6058;48.704;9.474;2023-04-25T16:22:10;4.30;;;3.90;;
11996;SDS011;6058;48.704;9.474;2023-04-25T16:28:02;6.03;;;4.70;;
11996;SDS011;6058;48.704;9.474;2023-04-25T16:30:50;5.07;;;4.10;;
11996;SDS011;6058;48.704;9.474;2023-04-25T16:33:28;4.97;;;4.13;;
11996;SDS011;6058;48.704;9.474;2023-04-25T16:36:06;5.30;;;4.47;;
11996;SDS011;6058;48.704;9.474;2023-04-25T16:38:41;6.73;;;4.97;;
11996;SDS011;6058;48.704;9.474;2023-04-25T16:41:28;8.23;;;6.57;;
11996;SDS011;6058;48.704;9.474;2023-04-25T16:44:13;4.90;;;4.40;;
11996;SDS011;6058;48.704;9.474;2023-04-25T16:46:45;5.60;;;4.80;;
11996;SDS011;6058;48.704;9.474;2023-04-25T16:49:24;5.40;;;4.77;;
11996;SDS011;6058;48.704;9.474;2023-04-25T16:52:10;6.30;;;4.50;;
11996;SDS011;6058;48.704;9.474;2023-04-25T16:54:50;5.47;;;4.67;;
11996;SDS011;6058;48.704;9.474;2023-04-25T16:57:27;7.27;;;6.23;;
11996;SDS011;6058;48.704;9.474;2023-04-25T17:00:18;6.93;;;5.30;;
11996;SDS011;6058;48.704;9.474;2023-04-25T17:03:13;5.03;;;4.27;;
11996;SDS011;6058;48.704;9.474;2023-04-25T17:05:51;7.03;;;5.07;;
11996;SDS011;6058;48.704;9.474;2023-04-25T17:08:30;5.37;;;4.47;;
11996;SDS011;6058;48.704;9.474;2023-04-25T17:13:43;7.47;;;4.57;;
11996;SDS011;6058;48.704;9.474;2023-04-25T17:16:40;7.07;;;4.83;;
11996;SDS011;6058;48.704;9.474;2023-04-25T17:19:16;4.30;;;3.90;;